Time;durP1;ratioP1;P1;durP2;ratioP2;P2;SDS_P1;SDS_P2;PMS_P1;PMS_P2;Temp;Humidity;BMP_temperature;BMP_pressure;BME280_temperature;BME280_humidity;BME280_pressure;Samples;Min_cycle;Max_cycle;Signal;HPM_P1;HPM_P2
2023/10/27 00:05:03;;;;;;;4.90;3.30;;;12.90;99.90;;;;;;5954006;24;20606;-85
2023/10/27 00:07:56;;;;;;;;;;;;;;;;;;;;;
2023/10/27 00:11:22;;;;;;;7.00;3.57;;;12.90;99.90;;;;;;6188086;23;20440;-86
2023/10/27 00:14:13;;;;;;;8.97;4.47;;;12.90;99.90;;;;;;6168171;23;20410;-86
2023/10/27 00:17:32;;;;;;;4.97;3.27;;;12.80;99.90;;;;;;6164930;23;20568;-86
2023/10/27 00:20:29;;;;;;;9.40;3.40;;;12.80;99.90;;;;;;6157849;23;20414;-85
2023/10/27 00:23:23;;;;;;;7.03;3.60;;;12.80;99.90;;;;;;6155741;23;20449;-84
2023/10/27 00:26:25;;;;;;;6.40;2.40;;;12.80;99.90;;;;;;6156860;23;20417;-85
2023/10/27 00:29:25;;;;;;;;;;;;;;;;;;;;;
2023/10/27 00:32:50;;;;;;;5.37;2.40;;;12.80;99.90;;;;;;6176581;23;20426;-85
2023/10/27 00:35:59;;;;;;;7.00;3.00;;;12.60;99.90;;;;;;6178023;23;20444;-85
2023/10/27 00:38:45;;;;;;;4.23;2.30;;;12.70;99.90;;;;;;6152876;23;20426;-84
2023/10/27 00:41:39;;;;;;;6.70;2.40;;;12.80;99.90;;;;;;6156126;23;20505;-86
2023/10/27 00:45:06;;;;;;;5.60;2.97;;;12.70;99.90;;;;;;6038421;23;20548;-87
2023/10/27 00:48:03;;;;;;;6.50;2.77;;;12.70;99.90;;;;;;6051217;23;20458;-87
2023/10/27 00:50:57;;;;;;;7.20;3.10;;;12.80;99.90;;;;;;6067604;23;20394;-87
2023/10/27 00:54:25;;;;;;;9.70;2.80;;;12.80;99.90;;;;;;6046892;23;20417;-86
2023/10/27 00:57:16;;;;;;;6.63;3.33;;;12.80;99.90;;;;;;6049835;23;20409;-89
2023/10/27 01:00:23;;;;;;;9.23;3.57;;;12.60;99.90;;;;;;6054204;23;20418;-87
2023/10/27 01:03:37;;;;;;;6.67;3.00;;;12.60;99.90;;;;;;6022704;23;20456;-87
2023/10/27 01:06:30;;;;;;;6.97;2.50;;;12.60;99.90;;;;;;6014314;23;20413;-86
2023/10/27 01:09:25;;;;;;;7.13;2.50;;;12.80;99.90;;;;;;6046783;23;20430;-88
2023/10/27 01:12:46;;;;;;;6.43;2.70;;;12.70;99.90;;;;;;6078516;23;20412;-89
2023/10/27 01:15:33;;;;;;;9.27;2.90;;;12.80;99.90;;;;;;6073450;23;20416;-86
2023/10/27 01:18:28;;;;;;;6.90;2.50;;;12.80;99.90;;;;;;6063140;23;20536;-86
2023/10/27 01:21:52;;;;;;;6.13;2.77;;;12.80;99.90;;;;;;6097862;23;20410;-84
2023/10/27 01:24:50;;;;;;;5.23;2.73;;;12.80;99.90;;;;;;6167484;23;20446;-89
2023/10/27 01:27:40;;;;;;;5.93;2.30;;;12.70;99.90;;;;;;6186789;23;20432;-86
2023/10/27 01:30:41;;;;;;;8.80;2.73;;;12.80;99.90;;;;;;6188114;23;20408;-85
2023/10/27 01:33:32;;;;;;;4.40;2.40;;;13.00;99.90;;;;;;6071590;23;20408;-84
2023/10/27 01:36:02;;;;;;;5.30;3.70;;;13.00;99.90;;;;;;6090630;23;20440;-86
2023/10/27 01:38:50;;;;;;;8.03;2.87;;;13.10;99.90;;;;;;6067390;23;20460;-84
2023/10/27 01:41:36;;;;;;;3.47;2.43;;;13.10;99.90;;;;;;6068153;23;20473;-85
2023/10/27 01:47:57;;;;;;;5.23;2.63;;;12.80;99.90;;;;;;6102633;23;20417;-84
2023/10/27 01:55:29;;;;;;;;;;;;;;;;;;;;;
2023/10/27 01:58:40;;;;;;;5.80;3.30;;;12.70;99.90;;;;;;5968463;23;20405;-88
2023/10/27 02:01:39;;;;;;;4.50;2.40;;;12.70;99.90;;;;;;5967048;23;20409;-87
2023/10/27 02:04:47;;;;;;;5.13;3.00;;;12.80;99.90;;;;;;5954978;24;20512;-85
2023/10/27 02:11:27;;;;;;;8.73;3.00;;;12.80;99.90;;;;;;5829428;24;20908;-88
2023/10/27 02:14:53;;;;;;;8.17;3.43;;;12.80;99.90;;;;;;5844690;24;20404;-86
2023/10/27 02:17:43;;;;;;;5.13;3.03;;;12.70;99.90;;;;;;5920948;24;20422;-85
2023/10/27 02:31:54;;;;;;;4.43;2.87;;;12.50;99.90;;;;;;5807957;24;20517;-84
2023/10/27 02:34:59;;;;;;;4.30;3.20;;;12.60;99.90;;;;;;5850883;24;20407;-85
2023/10/27 02:37:51;;;;;;;7.63;3.10;;;12.60;99.90;;;;;;5918027;24;20434;-86
2023/10/27 02:40:45;;;;;;;5.87;3.17;;;12.60;99.90;;;;;;5850714;24;20409;-87
2023/10/27 02:43:26;;;;;;;4.67;2.90;;;12.60;99.90;;;;;;5870253;24;20443;-86
2023/10/27 02:46:25;;;;;;;7.87;3.23;;;12.60;99.90;;;;;;5892436;24;20415;-86
2023/10/27 02:49:11;;;;;;;5.43;3.00;;;12.40;99.90;;;;;;5864777;24;21090;-86
2023/10/27 02:52:04;;;;;;;6.50;3.53;;;12.50;99.90;;;;;;5864149;24;20518;-85
2023/10/27 02:54:57;;;;;;;5.77;3.47;;;12.70;99.90;;;;;;5880376;24;20493;-85
2023/10/27 02:58:05;;;;;;;8.23;3.03;;;12.70;99.90;;;;;;5925640;24;20459;-85
2023/10/27 03:00:43;;;;;;;10.10;4.20;;;12.60;99.90;;;;;;5972199;24;20464;-86
2023/10/27 03:03:38;;;;;;;3.87;3.20;;;12.50;99.90;;;;;;5974672;24;20478;-86
2023/10/27 03:06:30;;;;;;;5.30;3.20;;;12.50;99.90;;;;;;5964848;23;20426;-85
2023/10/27 03:09:35;;;;;;;4.37;2.60;;;12.60;99.90;;;;;;6063343;23;20483;-86
2023/10/27 03:12:25;;;;;;;3.83;3.07;;;12.60;99.90;;;;;;6043206;23;20476;-84
2023/10/27 03:15:24;;;;;;;10.87;3.70;;;12.60;99.90;;;;;;6063431;23;20551;-85
2023/10/27 03:18:27;;;;;;;3.93;2.63;;;12.50;99.90;;;;;;6127345;23;20386;-87
2023/10/27 03:21:54;;;;;;;7.00;3.50;;;12.40;99.90;;;;;;6183959;23;20409;-86
2023/10/27 03:25:27;;;;;;;3.87;2.83;;;12.30;99.90;;;;;;6162068;23;20485;-86
2023/10/27 03:28:42;;;;;;;4.23;2.97;;;12.40;99.90;;;;;;6176665;23;20463;-86
2023/10/27 03:31:19;;;;;;;4.93;2.70;;;12.60;99.90;;;;;;6203514;23;20416;-87
2023/10/27 03:34:33;;;;;;;7.57;2.60;;;12.60;99.90;;;;;;6201523;23;20424;-86
2023/10/27 03:37:32;;;;;;;6.53;2.70;;;12.50;99.90;;;;;;6068112;23;20416;-84
2023/10/27 03:40:12;;;;;;;5.60;3.40;;;12.60;99.90;;;;;;6197067;23;20412;-89
2023/10/27 03:43:13;;;;;;;8.27;3.27;;;12.60;99.90;;;;;;6209314;23;20429;-85
2023/10/27 03:46:45;;;;;;;5.97;3.10;;;12.50;99.90;;;;;;6190890;23;20392;-87
2023/10/27 03:49:28;;;;;;;4.10;2.57;;;12.40;99.90;;;;;;6212980;23;20475;-87
2023/10/27 03:52:16;;;;;;;6.60;2.40;;;12.40;99.90;;;;;;6170206;23;20428;-88
2023/10/27 03:56:08;;;;;;;5.73;2.50;;;12.60;99.90;;;;;;6215793;23;20391;-87
2023/10/27 03:59:10;;;;;;;7.70;2.97;;;12.50;99.90;;;;;;6206070;23;20484;-86
2023/10/27 04:05:29;;;;;;;9.03;3.63;;;12.60;99.90;;;;;;6237871;23;20439;-86
2023/10/27 04:08:15;;;;;;;3.10;2.10;;;12.50;99.90;;;;;;6212255;23;20397;-87
2023/10/27 04:11:10;;;;;;;3.47;2.50;;;12.40;99.90;;;;;;6195019;23;20424;-85
2023/10/27 04:13:44;;;;;;;8.60;2.93;;;12.30;99.90;;;;;;6197883;23;21213;-87
2023/10/27 04:16:46;;;;;;;7.90;3.57;;;12.40;99.90;;;;;;6211932;23;20874;-89
2023/10/27 04:19:30;;;;;;;9.43;2.97;;;12.30;99.90;;;;;;6194110;23;20412;-86
2023/10/27 04:22:23;;;;;;;4.97;2.57;;;12.20;99.90;;;;;;6180592;23;20431;-87
2023/10/27 04:25:05;;;;;;;9.07;2.77;;;12.10;99.90;;;;;;6193511;23;20476;-91
2023/10/27 04:31:34;;;;;;;11.50;3.67;;;12.30;99.90;;;;;;6190542;23;20412;-88
2023/10/27 04:35:11;;;;;;;5.50;3.20;;;12.20;99.90;;;;;;6160343;23;20529;-86
2023/10/27 04:41:30;;;;;;;5.47;3.33;;;12.20;99.90;;;;;;6179981;23;20413;-87
2023/10/27 04:51:30;;;;;;;5.43;3.13;;;12.30;99.90;;;;;;6022350;23;20405;-89
2023/10/27 04:54:50;;;;;;;;;;;;;;;;;;;;;
2023/10/27 04:57:31;;;;;;;8.53;3.37;;;12.40;99.90;;;;;;6111556;23;20784;-91
2023/10/27 05:00:47;;;;;;;11.30;3.57;;;12.20;99.90;;;;;;6068502;23;21405;-85
2023/10/27 05:23:07;;;;;;;9.07;4.43;;;12.50;99.90;;;;;;6088088;22;20858;-87
2023/10/27 05:26:17;;;;;;;11.20;4.00;;;12.60;99.90;;;;;;6184417;23;20855;-86
2023/10/27 05:28:53;;;;;;;4.33;2.83;;;12.50;99.90;;;;;;6188966;23;20433;-86
2023/10/27 06:05:17;;;;;;;10.17;3.87;;;12.40;99.90;;;;;;6216373;22;21045;-88
2023/10/27 06:12:36;;;;;;;;;;;;;;;;;;;;;
2023/10/27 06:19:31;;;;;;;6.60;5.27;;;12.30;99.90;;;;;;5988746;23;20715;-86
2023/10/27 06:28:46;;;;;;;11.70;4.67;;;12.40;99.90;;;;;;6227993;23;20425;-87
2023/10/27 06:32:48;;;;;;;;;;;;;;;;;;;;;
2023/10/27 06:40:22;;;;;;;21.70;14.67;;;12.30;99.90;;;;;;6128851;23;20406;-85
2023/10/27 06:44:14;;;;;;;5.77;3.40;;;12.40;99.90;;;;;;5989444;23;20424;-88
2023/10/27 06:47:51;;;;;;;6.43;4.33;;;12.50;99.90;;;;;;6038222;23;20420;-89
2023/10/27 07:01:46;;;;;;;3.93;2.97;;;12.40;99.90;;;;;;6066055;23;20406;-88
2023/10/27 07:04:43;;;;;;;8.20;3.80;;;12.40;99.90;;;;;;6014131;23;20479;-86
2023/10/27 07:07:53;;;;;;;5.27;2.93;;;12.40;99.90;;;;;;5998451;23;20411;-85
2023/10/27 07:10:54;;;;;;;9.13;4.07;;;12.40;99.90;;;;;;6046903;23;20472;-87
2023/10/27 07:14:14;;;;;;;9.10;3.90;;;12.50;99.90;;;;;;6201809;22;20444;-87
2023/10/27 07:17:49;;;;;;;3.87;3.50;;;12.50;99.90;;;;;;6148347;23;20407;-84
2023/10/27 07:45:44;;;;;;;5.30;3.67;;;12.50;99.90;;;;;;6089764;23;20542;-89
2023/10/27 07:49:55;;;;;;;10.60;3.60;;;12.40;99.90;;;;;;6062147;23;20479;-87
2023/10/27 07:53:08;;;;;;;6.40;3.20;;;12.70;99.90;;;;;;5975344;23;20481;-86
2023/10/27 08:04:32;;;;;;;3.77;2.73;;;12.70;99.90;;;;;;6186637;22;20483;-87
2023/10/27 08:11:07;;;;;;;3.53;2.90;;;12.80;99.90;;;;;;6099293;23;20576;-86
2023/10/27 08:30:48;;;;;;;;;;;;;;;;;;;;;
2023/10/27 08:38:03;;;;;;;2.53;2.03;;;13.00;99.90;;;;;;6137807;23;20450;-87
2023/10/27 08:41:17;;;;;;;2.77;1.90;;;13.10;99.90;;;;;;6119156;23;20423;-86
2023/10/27 08:44:38;;;;;;;3.90;2.67;;;13.20;99.90;;;;;;6140240;23;20435;-88
2023/10/27 09:00:18;;;;;;;;;;;;;;;;;;;;;
2023/10/27 09:05:46;;;;;;;2.70;2.17;;;13.20;99.90;;;;;;6191585;23;20959;-84
2023/10/27 09:13:09;;;;;;;4.57;2.50;;;13.30;99.90;;;;;;6057967;23;20426;-85
2023/10/27 09:16:29;;;;;;;4.37;2.70;;;13.10;99.90;;;;;;6125631;23;20419;-86
2023/10/27 09:22:59;;;;;;;2.77;1.83;;;13.30;99.90;;;;;;6136119;23;20435;-86
2023/10/27 09:26:29;;;;;;;;;;;;;;;;;;;;;
2023/10/27 09:29:38;;;;;;;4.03;2.30;;;13.40;99.90;;;;;;6146825;23;20446;-86
2023/10/27 09:40:09;;;;;;;4.80;2.57;;;13.40;99.90;;;;;;6057730;23;20407;-86
2023/10/27 09:47:27;;;;;;;2.60;2.27;;;13.60;99.90;;;;;;6121851;23;20471;-87
2023/10/27 09:51:02;;;;;;;2.57;2.37;;;13.60;99.90;;;;;;6120063;23;20911;-86
2023/10/27 09:56:59;;;;;;;2.20;1.77;;;13.70;99.90;;;;;;6193377;23;20473;-87
2023/10/27 10:03:39;;;;;;;3.40;1.80;;;13.70;99.90;;;;;;6193870;23;20421;-86
2023/10/27 10:06:49;;;;;;;2.57;2.27;;;13.90;99.90;;;;;;6152528;23;20454;-87
2023/10/27 10:10:30;;;;;;;;;;;;;;;;;;;;;
2023/10/27 10:14:00;;;;;;;3.97;2.07;;;13.80;99.90;;;;;;6032504;23;20517;-86
2023/10/27 10:17:40;;;;;;;3.33;2.00;;;13.80;99.90;;;;;;6067891;23;21023;-88
2023/10/27 10:25:11;;;;;;;;;;;;;;;;;;;;;
2023/10/27 10:28:40;;;;;;;;;;;;;;;;;;;;;
2023/10/27 10:32:17;;;;;;;6.03;1.93;;;14.10;99.90;;;;;;6019001;23;20445;-88
2023/10/27 10:39:28;;;;;;;2.30;1.87;;;14.50;99.90;;;;;;6041152;23;20407;-87
2023/10/27 10:46:44;;;;;;;3.60;1.97;;;14.90;99.90;;;;;;5944235;23;20576;-87
2023/10/27 11:02:17;;;;;;;;;;;;;;;;;;;;;
2023/10/27 11:09:23;;;;;;;3.83;2.63;;;14.90;99.90;;;;;;6111994;23;20499;-87
2023/10/27 11:24:09;;;;;;;;;;;;;;;;;;;;;
2023/10/27 11:31:19;;;;;;;3.90;2.33;;;14.30;99.90;;;;;;6012272;23;20451;-87
2023/10/27 11:35:02;;;;;;;1.73;1.60;;;14.60;99.90;;;;;;5991858;23;20482;-87
2023/10/27 11:42:14;;;;;;;;;;;;;;;;;;;;;
2023/10/27 11:45:34;;;;;;;2.10;1.60;;;14.80;99.90;;;;;;6013167;23;21250;-86
2023/10/27 11:48:41;;;;;;;;;;;;;;;;;;;;;
2023/10/27 11:52:11;;;;;;;5.80;3.80;;;14.40;99.90;;;;;;6014739;23;20422;-87
2023/10/27 11:59:30;;;;;;;1.77;1.60;;;14.20;99.90;;;;;;6002966;23;20398;-85
2023/10/27 12:03:01;;;;;;;;;;;;;;;;;;;;;
2023/10/27 12:06:15;;;;;;;5.27;2.00;;;14.20;99.90;;;;;;6190160;23;20508;-86
2023/10/27 12:09:22;;;;;;;4.10;2.07;;;14.20;99.90;;;;;;6127067;23;20412;-85
2023/10/27 12:19:53;;;;;;;4.93;2.63;;;14.30;99.90;;;;;;6036271;23;20409;-87
2023/10/27 12:22:55;;;;;;;6.37;2.70;;;14.20;99.90;;;;;;6108726;23;20479;-87
2023/10/27 12:25:59;;;;;;;4.77;2.47;;;14.20;99.90;;;;;;6112645;23;20570;-87
2023/10/27 12:29:20;;;;;;;;;;;;;;;;;;;;;
2023/10/27 12:32:22;;;;;;;6.07;2.47;;;14.60;99.90;;;;;;6100295;23;20987;-86
2023/10/27 12:35:41;;;;;;;3.60;1.90;;;15.00;99.90;;;;;;6081357;23;20394;-87
2023/10/27 12:39:06;;;;;;;4.37;1.73;;;15.00;99.90;;;;;;6082441;23;20766;-84
2023/10/27 12:42:25;;;;;;;2.20;1.83;;;14.70;99.90;;;;;;6085295;23;20447;-86
2023/10/27 12:45:45;;;;;;;2.77;1.40;;;14.30;99.90;;;;;;6105946;23;20437;-88
2023/10/27 12:48:49;;;;;;;4.13;1.20;;;14.10;99.90;;;;;;6018004;23;20452;-87
2023/10/27 12:59:23;;;;;;;2.20;1.47;;;14.20;99.90;;;;;;6103905;23;20442;-87
2023/10/27 13:02:18;;;;;;;4.03;2.67;;;14.20;99.90;;;;;;6195609;23;20461;-87
2023/10/27 13:05:33;;;;;;;3.70;1.70;;;14.20;99.90;;;;;;6200657;23;20443;-86
2023/10/27 13:08:46;;;;;;;3.90;1.60;;;14.40;99.90;;;;;;6202287;23;20389;-86
2023/10/27 13:12:25;;;;;;;;;;;;;;;;;;;;;
2023/10/27 13:15:33;;;;;;;1.97;1.37;;;14.20;99.90;;;;;;6223087;23;20392;-86
2023/10/27 13:19:31;;;;;;;3.73;2.10;;;14.40;99.90;;;;;;6195629;23;20415;-86
2023/10/27 13:25:14;;;;;;;1.93;1.37;;;14.70;99.90;;;;;;6184448;23;20985;-87
2023/10/27 13:28:03;;;;;;;4.63;1.73;;;14.70;99.90;;;;;;6189514;23;20501;-87
2023/10/27 13:31:40;;;;;;;2.50;1.20;;;14.80;99.90;;;;;;6180647;23;20768;-87
2023/10/27 13:38:07;;;;;;;2.73;2.10;;;15.10;99.90;;;;;;6193066;23;20416;-86
2023/10/27 13:40:57;;;;;;;4.20;2.13;;;15.10;99.90;;;;;;6192859;23;20409;-86
2023/10/27 13:54:43;;;;;;;2.10;1.10;;;14.80;99.90;;;;;;6193893;23;20401;-85
2023/10/27 13:57:55;;;;;;;3.27;1.13;;;14.80;99.90;;;;;;6198641;23;20448;-86
2023/10/27 14:01:11;;;;;;;3.07;1.70;;;15.00;99.90;;;;;;6197702;23;20921;-87
2023/10/27 14:04:18;;;;;;;3.87;1.30;;;14.70;99.90;;;;;;6185755;23;20398;-88
2023/10/27 14:07:43;;;;;;;3.60;1.63;;;14.70;99.90;;;;;;6223220;23;20437;-87
2023/10/27 14:10:57;;;;;;;4.50;1.23;;;14.60;99.90;;;;;;6189699;23;20396;-87
2023/10/27 14:14:01;;;;;;;1.97;1.40;;;14.90;99.90;;;;;;6200431;23;20428;-88
2023/10/27 14:17:57;;;;;;;;;;;;;;;;;;;;;
2023/10/27 14:21:21;;;;;;;2.10;1.43;;;14.90;99.90;;;;;;6226022;23;20427;-88
2023/10/27 14:24:25;;;;;;;1.80;1.30;;;15.10;99.90;;;;;;6075942;23;20442;-87
2023/10/27 14:27:51;;;;;;;2.47;1.73;;;15.30;99.90;;;;;;6076986;23;20509;-86
2023/10/27 14:31:16;;;;;;;2.30;1.40;;;15.30;99.90;;;;;;6075118;23;20437;-88
2023/10/27 14:34:19;;;;;;;1.97;1.43;;;15.10;99.90;;;;;;5985987;23;20408;-88
2023/10/27 14:37:07;;;;;;;5.23;1.63;;;15.30;99.90;;;;;;6013228;23;20422;-87
2023/10/27 15:30:11;;;;;;;;;;;;;;;;;;;;;
2023/10/27 15:33:24;;;;;;;2.67;1.40;;;14.80;99.90;;;;;;6063760;23;20469;-88
2023/10/27 15:36:23;;;;;;;3.23;1.77;;;14.70;99.90;;;;;;6056517;23;20389;-89
2023/10/27 15:39:40;;;;;;;1.43;1.17;;;14.60;99.90;;;;;;6093243;23;20683;-89
2023/10/27 15:46:57;;;;;;;2.40;1.30;;;14.60;99.90;;;;;;6094672;23;20457;-88
2023/10/27 15:49:52;;;;;;;2.73;1.37;;;14.60;99.90;;;;;;6079834;23;20451;-87
2023/10/27 15:56:00;;;;;;;3.53;1.57;;;14.80;99.90;;;;;;6171486;23;20441;-88
2023/10/27 16:03:06;;;;;;;;;;;;;;;;;;;;;
2023/10/27 16:06:22;;;;;;;2.40;1.50;;;14.70;99.90;;;;;;6167602;23;20449;-87
2023/10/27 16:09:31;;;;;;;1.93;1.40;;;15.00;99.90;;;;;;6166073;23;20491;-87
2023/10/27 16:13:01;;;;;;;2.50;1.30;;;15.10;99.90;;;;;;6170979;23;20441;-88
2023/10/27 16:16:16;;;;;;;2.27;1.60;;;15.10;99.90;;;;;;6163303;23;20434;-86
2023/10/27 16:19:35;;;;;;;4.80;1.50;;;15.10;99.90;;;;;;6167447;23;20465;-87
2023/10/27 16:23:10;;;;;;;5.77;2.07;;;15.00;99.90;;;;;;6061001;23;20442;-86
2023/10/27 16:26:28;;;;;;;3.00;1.60;;;14.90;99.90;;;;;;6061059;23;20445;-87
2023/10/27 16:29:27;;;;;;;4.37;1.60;;;14.90;99.90;;;;;;6078898;23;20390;-88
2023/10/27 16:36:28;;;;;;;3.07;1.80;;;14.60;99.90;;;;;;6091061;23;20397;-90
2023/10/27 16:45:10;;;;;;;2.50;1.30;;;14.60;99.90;;;;;;6219949;23;20449;-87
2023/10/27 16:48:24;;;;;;;3.30;1.57;;;14.50;99.90;;;;;;6169461;23;20405;-87
2023/10/27 16:51:39;;;;;;;3.43;1.70;;;14.50;99.90;;;;;;6165098;23;20398;-87
2023/10/27 16:55:27;;;;;;;4.50;1.57;;;14.40;99.90;;;;;;6180920;23;20405;-89
2023/10/27 16:58:46;;;;;;;4.77;1.30;;;14.70;99.90;;;;;;6156258;23;20446;-87
2023/10/27 17:02:09;;;;;;;6.63;1.80;;;14.70;99.90;;;;;;6135906;23;20425;-86
2023/10/27 17:08:37;;;;;;;7.40;2.40;;;14.50;99.90;;;;;;6158255;23;20499;-88
2023/10/27 17:11:39;;;;;;;3.20;1.80;;;14.40;99.90;;;;;;6073616;23;20412;-87
2023/10/27 17:14:23;;;;;;;4.40;2.17;;;14.40;99.90;;;;;;6105650;23;20453;-87
2023/10/27 17:17:19;;;;;;;4.00;2.20;;;14.40;99.90;;;;;;6143277;23;20411;-87
2023/10/27 17:24:13;;;;;;;5.03;2.23;;;14.50;99.90;;;;;;6129819;23;20406;-87
2023/10/27 17:27:24;;;;;;;5.43;2.33;;;14.30;99.90;;;;;;6134457;23;20489;-88
2023/10/27 17:30:28;;;;;;;6.03;2.90;;;14.20;99.90;;;;;;6031220;23;20407;-90
2023/10/27 17:40:35;;;;;;;5.40;3.63;;;13.80;99.90;;;;;;6019867;23;20410;-86
2023/10/27 17:43:13;;;;;;;5.40;3.80;;;13.90;99.90;;;;;;5976635;23;20435;-88
2023/10/27 17:47:22;;;;;;;7.03;3.03;;;14.00;99.90;;;;;;6049802;23;20583;-86
2023/10/27 17:50:07;;;;;;;3.67;3.27;;;14.20;99.90;;;;;;5937258;24;20493;-86
2023/10/27 17:52:55;;;;;;;2.63;2.20;;;14.10;99.90;;;;;;6022107;23;20431;-88
2023/10/27 17:56:00;;;;;;;2.90;2.70;;;14.30;99.90;;;;;;6028306;23;20399;-87
2023/10/27 18:06:14;;;;;;;;;;;;;;;;;;;;;
2023/10/27 18:09:28;;;;;;;4.33;2.63;;;14.00;99.90;;;;;;6101191;23;20411;-86
2023/10/27 18:12:56;;;;;;;3.50;2.93;;;14.10;99.90;;;;;;6147391;23;20471;-85
2023/10/27 18:15:58;;;;;;;4.00;2.83;;;13.90;99.90;;;;;;6173727;23;20438;-87
2023/10/27 18:21:59;;;;;;;5.90;2.90;;;13.90;99.90;;;;;;6052465;23;20421;-87
2023/10/27 18:24:53;;;;;;;3.20;2.90;;;13.70;99.90;;;;;;6147151;23;20482;-87
2023/10/27 18:28:14;;;;;;;4.07;2.70;;;13.60;99.90;;;;;;6166994;23;20375;-87
2023/10/27 18:31:44;;;;;;;;;;;;;;;;;;;;;
2023/10/27 18:35:06;;;;;;;5.90;2.93;;;13.70;99.90;;;;;;5996619;24;20888;-88
2023/10/27 18:38:21;;;;;;;4.57;2.80;;;13.70;99.90;;;;;;5957508;23;20402;-88
2023/10/27 18:41:31;;;;;;;4.03;2.77;;;13.70;99.90;;;;;;6030604;23;20423;-88
2023/10/27 18:44:46;;;;;;;9.47;3.50;;;13.70;99.90;;;;;;6048888;23;20390;-89
2023/10/27 18:48:21;;;;;;;4.10;2.63;;;13.60;99.90;;;;;;6047573;23;20437;-90
2023/10/27 18:52:17;;;;;;;2.63;1.87;;;13.60;99.90;;;;;;6088782;23;20432;-88
2023/10/27 18:55:24;;;;;;;;;;;;;;;;;;;;;
2023/10/27 18:59:04;;;;;;;;;;;;;;;;;;;;;
2023/10/27 19:02:01;;;;;;;5.90;2.40;;;13.30;99.90;;;;;;6174212;23;20427;-89
2023/10/27 19:05:08;;;;;;;;;;;;;;;;;;;;;
2023/10/27 19:08:11;;;;;;;;;;;;;;;;;;;;;
2023/10/27 19:11:24;;;;;;;;;;;;;;;;;;;;;
2023/10/27 19:14:50;;;;;;;3.20;2.80;;;13.30;99.90;;;;;;6091500;23;20434;-87
2023/10/27 19:17:57;;;;;;;8.30;3.13;;;13.20;99.90;;;;;;6146972;23;20394;-88
2023/10/27 19:21:34;;;;;;;5.53;2.67;;;13.20;99.90;;;;;;6157772;23;20399;-87
2023/10/27 19:24:35;;;;;;;4.70;2.70;;;13.30;99.90;;;;;;6172676;23;20458;-87
2023/10/27 19:31:26;;;;;;;2.93;2.63;;;13.10;99.90;;;;;;6159446;23;20438;-87
2023/10/27 19:34:33;;;;;;;4.00;2.87;;;13.10;99.90;;;;;;6131446;23;20409;-88
2023/10/27 19:37:36;;;;;;;3.47;2.80;;;13.00;99.90;;;;;;6146938;23;20403;-91
2023/10/27 19:40:40;;;;;;;3.87;2.80;;;13.00;99.90;;;;;;6151959;23;20382;-88
2023/10/27 19:44:08;;;;;;;5.13;2.37;;;13.10;99.90;;;;;;6169005;23;20520;-89
2023/10/27 19:47:29;;;;;;;9.43;2.77;;;13.20;99.90;;;;;;6116332;23;20497;-87
2023/10/27 19:50:38;;;;;;;4.43;3.83;;;13.20;99.90;;;;;;6126060;23;20407;-88
2023/10/27 19:54:04;;;;;;;5.23;3.20;;;13.30;99.90;;;;;;6199711;23;20414;-89
2023/10/27 19:57:19;;;;;;;4.27;2.70;;;13.30;99.90;;;;;;6195930;23;20406;-89
2023/10/27 20:04:06;;;;;;;6.00;3.80;;;13.30;99.90;;;;;;6131407;23;20436;-88
2023/10/27 20:07:30;;;;;;;3.03;2.73;;;13.20;99.90;;;;;;6087152;23;20467;-87
2023/10/27 20:14:18;;;;;;;9.93;3.70;;;13.10;99.90;;;;;;6079317;23;20433;-86
2023/10/27 20:17:47;;;;;;;7.20;3.73;;;13.20;99.90;;;;;;5962852;24;20407;-87
2023/10/27 20:21:01;;;;;;;7.83;4.00;;;13.00;99.90;;;;;;5989944;23;20389;-88
2023/10/27 20:24:27;;;;;;;6.13;3.53;;;13.00;99.90;;;;;;6014188;23;20413;-86
2023/10/27 20:27:44;;;;;;;7.03;4.10;;;12.80;99.90;;;;;;6050575;23;20529;-88
2023/10/27 20:30:41;;;;;;;4.93;3.03;;;12.80;99.90;;;;;;6043942;23;20405;-86
2023/10/27 20:37:02;;;;;;;5.73;4.37;;;12.70;99.90;;;;;;6117130;23;20421;-88
2023/10/27 20:39:55;;;;;;;5.47;3.70;;;12.60;99.90;;;;;;6100272;23;20449;-88
2023/10/27 20:42:58;;;;;;;4.13;3.27;;;12.70;99.90;;;;;;6089730;23;20503;-89
2023/10/27 20:46:34;;;;;;;5.00;3.20;;;12.60;99.90;;;;;;6113289;23;20536;-88
2023/10/27 20:49:58;;;;;;;4.60;2.90;;;12.50;99.90;;;;;;6112841;23;20412;-88
2023/10/27 20:52:55;;;;;;;3.53;2.73;;;12.80;99.90;;;;;;6113058;23;20433;-88
2023/10/27 20:59:11;;;;;;;4.33;2.80;;;12.60;99.90;;;;;;6086793;23;20833;-89
2023/10/27 21:02:49;;;;;;;2.90;2.60;;;12.60;99.90;;;;;;6031125;23;20405;-87
2023/10/27 21:05:29;;;;;;;5.53;2.90;;;12.70;99.90;;;;;;6087365;23;20424;-88
2023/10/27 21:08:46;;;;;;;;;;;;;;;;;;;;;
2023/10/27 21:12:04;;;;;;;3.40;2.73;;;12.70;99.90;;;;;;6106224;23;20427;-89
2023/10/27 21:15:19;;;;;;;3.40;2.53;;;12.70;99.90;;;;;;6098073;23;20563;-89
2023/10/27 21:18:20;;;;;;;5.80;2.97;;;12.60;99.90;;;;;;6069648;23;20432;-87
2023/10/27 21:21:41;;;;;;;3.20;2.90;;;12.60;99.90;;;;;;6083547;23;20409;-87
2023/10/27 21:24:22;;;;;;;4.97;2.60;;;12.60;99.90;;;;;;6089929;23;20483;-89
2023/10/27 21:27:30;;;;;;;3.47;2.60;;;12.60;99.90;;;;;;6077530;23;20462;-87
2023/10/27 21:30:45;;;;;;;3.07;2.87;;;12.50;99.90;;;;;;6086576;23;20417;-87
2023/10/27 21:56:14;;;;;;;4.93;3.13;;;12.50;99.90;;;;;;6225489;22;20464;-88
2023/10/27 21:59:19;;;;;;;3.47;2.70;;;12.40;99.90;;;;;;6204038;23;20395;-86
2023/10/27 22:05:02;;;;;;;4.03;3.00;;;12.50;99.90;;;;;;6221101;23;20432;-86
2023/10/27 22:11:49;;;;;;;4.60;3.40;;;12.50;99.90;;;;;;6164045;23;20441;-90
2023/10/27 22:15:00;;;;;;;5.20;3.37;;;12.40;99.90;;;;;;6158410;23;20418;-88
2023/10/27 22:24:20;;;;;;;;;;;;;;;;;;;;;
2023/10/27 22:26:55;;;;;;;6.20;2.77;;;12.30;99.90;;;;;;6193040;23;20535;-86
2023/10/27 22:33:17;;;;;;;6.20;2.70;;;12.20;99.90;;;;;;6210032;23;20445;-88
2023/10/27 22:36:44;;;;;;;5.90;2.80;;;12.20;99.90;;;;;;6120640;23;21020;-89
2023/10/27 22:40:00;;;;;;;4.97;3.13;;;12.20;99.90;;;;;;6097433;23;20397;-89
2023/10/27 22:46:54;;;;;;;5.50;3.40;;;12.20;99.90;;;;;;6019201;23;20446;-87
2023/10/27 22:50:25;;;;;;;2.63;2.43;;;12.20;99.90;;;;;;5884071;24;20465;-85
2023/10/27 22:53:16;;;;;;;5.07;2.37;;;12.20;99.90;;;;;;6107684;23;20403;-87
2023/10/27 22:59:52;;;;;;;5.90;3.13;;;12.10;99.90;;;;;;6094236;23;20444;-87
2023/10/27 23:03:03;;;;;;;7.83;2.93;;;12.00;99.90;;;;;;6073776;23;20437;-89
2023/10/27 23:06:29;;;;;;;7.40;3.50;;;12.10;99.90;;;;;;6089661;23;20530;-87
2023/10/27 23:09:32;;;;;;;7.00;3.17;;;12.20;99.90;;;;;;6084259;23;20401;-88
2023/10/27 23:12:25;;;;;;;3.63;2.80;;;12.20;99.90;;;;;;6060635;23;20436;-88
2023/10/27 23:15:40;;;;;;;5.10;2.90;;;12.30;99.90;;;;;;6192714;23;20409;-88
2023/10/27 23:18:54;;;;;;;6.13;2.70;;;12.30;99.90;;;;;;6173440;23;20381;-87
2023/10/27 23:21:55;;;;;;;5.47;2.73;;;12.30;99.90;;;;;;6191959;23;20868;-86
2023/10/27 23:24:49;;;;;;;7.43;2.77;;;12.20;99.90;;;;;;6191928;23;20504;-86
2023/10/27 23:28:11;;;;;;;4.20;3.00;;;12.20;99.90;;;;;;6170481;23;20476;-87
2023/10/27 23:31:41;;;;;;;4.03;2.10;;;12.30;99.90;;;;;;6172583;23;20382;-88
2023/10/27 23:34:37;;;;;;;6.87;2.60;;;12.40;99.90;;;;;;6200876;23;20477;-87
2023/10/27 23:37:29;;;;;;;6.67;3.13;;;12.40;99.90;;;;;;6199227;23;20421;-85
2023/10/27 23:40:36;;;;;;;4.80;2.57;;;12.40;99.90;;;;;;6128482;23;20404;-86
2023/10/27 23:43:30;;;;;;;6.27;3.27;;;12.30;99.90;;;;;;6212095;23;20422;-87
2023/10/27 23:46:18;;;;;;;3.63;2.37;;;12.10;99.90;;;;;;6205484;23;20508;-86
2023/10/27 23:49:41;;;;;;;5.20;2.67;;;12.30;99.90;;;;;;6179731;23;20425;-86
2023/10/27 23:52:36;;;;;;;5.87;2.80;;;12.50;99.90;;;;;;6195370;23;20426;-88
2023/10/27 23:58:45;;;;;;;5.10;3.30;;;12.50;99.90;;;;;;6194947;23;20481;-86
